createdAt,value
2023-01-21T00:00:33.052Z,12.27
2023-01-21T00:03:35.287Z,14.60
2023-01-21T00:06:37.932Z,15.90
2023-01-21T00:13:00.518Z,14.50
2023-01-21T00:16:03.220Z,17.05
2023-01-21T00:19:05.159Z,17.17
2023-01-21T00:22:07.741Z,19.50
2023-01-21T00:25:10.740Z,14.52
2023-01-21T00:28:12.732Z,12.40
2023-01-21T00:31:15.362Z,13.10
2023-01-21T00:34:17.527Z,14.90
2023-01-21T00:37:20.105Z,14.33
2023-01-21T00:40:22.800Z,12.07
2023-01-21T00:43:24.198Z,15.40
2023-01-21T00:46:26.929Z,14.77
2023-01-21T00:49:29.073Z,15.20
2023-01-21T00:52:31.758Z,12.63
2023-01-21T00:55:34.845Z,15.25
2023-01-21T00:58:36.368Z,12.88
2023-01-21T01:01:39.308Z,13.13
2023-01-21T01:04:41.576Z,13.87
2023-01-21T01:07:46.526Z,13.50
2023-01-21T01:10:49.133Z,14.77
2023-01-21T01:13:50.426Z,13.60
2023-01-21T01:16:52.968Z,13.75
2023-01-21T01:19:55.097Z,13.53
2023-01-21T01:22:57.659Z,11.33
2023-01-21T01:26:02.035Z,15.75
2023-01-21T01:29:03.774Z,11.50
2023-01-21T01:32:07.047Z,12.13
2023-01-21T01:35:09.819Z,16.43
2023-01-21T01:38:14.488Z,14.13
2023-01-21T01:41:17.572Z,15.15
2023-01-21T01:45:00.007Z,15.32
2023-01-21T01:48:06.734Z,12.68
2023-01-21T01:51:10.401Z,13.07
2023-01-21T01:54:16.151Z,12.63
2023-01-21T01:57:21.473Z,12.00
2023-01-21T02:00:24.510Z,11.23
2023-01-21T02:03:45.496Z,11.75
2023-01-21T02:06:48.574Z,11.93
2023-01-21T02:09:53.438Z,12.13
2023-01-21T02:12:56.004Z,12.60
2023-01-21T02:19:52.157Z,14.00
2023-01-21T02:23:02.799Z,12.23
2023-01-21T02:26:31.167Z,11.18
2023-01-21T02:30:09.243Z,11.40
2023-01-21T02:33:39.195Z,12.52
2023-01-21T02:37:07.748Z,11.32
2023-01-21T02:40:21.193Z,10.37
2023-01-21T02:43:35.475Z,11.95
2023-01-21T02:46:42.224Z,9.07
2023-01-21T02:49:49.952Z,10.18
2023-01-21T02:52:55.437Z,9.82
2023-01-21T02:59:22.316Z,10.77
2023-01-21T03:02:41.811Z,10.35
2023-01-21T03:09:33.260Z,10.48
2023-01-21T03:12:44.135Z,8.83
2023-01-21T03:16:12.094Z,10.07
2023-01-21T03:19:17.633Z,9.02
2023-01-21T03:22:26.498Z,11.00
2023-01-21T03:25:32.019Z,10.63
2023-01-21T03:28:39.387Z,9.40
2023-01-21T03:31:46.141Z,11.07
2023-01-21T03:34:52.009Z,10.32
2023-01-21T03:41:25.963Z,10.80
2023-01-21T03:44:27.274Z,11.37
2023-01-21T03:47:33.984Z,10.05
2023-01-21T03:50:39.705Z,11.73
2023-01-21T03:53:43.968Z,10.82
2023-01-21T03:56:45.296Z,10.98
2023-01-21T03:59:47.903Z,9.37
2023-01-21T04:02:49.222Z,11.68
2023-01-21T04:05:50.939Z,10.95
2023-01-21T04:08:54.154Z,10.38
2023-01-21T04:11:55.479Z,12.38
2023-01-21T04:14:58.662Z,9.47
2023-01-21T04:18:01.220Z,10.93
2023-01-21T04:21:02.517Z,9.52
2023-01-21T04:24:06.936Z,11.50
2023-01-21T04:27:08.247Z,10.98
2023-01-21T04:30:11.739Z,8.53
2023-01-21T04:33:14.474Z,10.35
2023-01-21T04:36:15.792Z,9.50
2023-01-21T04:39:19.077Z,9.55
2023-01-21T04:42:20.337Z,10.68
2023-01-21T04:45:22.079Z,10.47
2023-01-21T04:48:23.375Z,8.85
2023-01-21T04:51:24.657Z,11.65
2023-01-21T04:54:27.993Z,10.43
2023-01-21T04:57:29.595Z,9.25
2023-01-21T05:00:30.905Z,10.30
2023-01-21T05:03:32.189Z,9.95
2023-01-21T05:06:35.874Z,11.97
2023-01-21T05:09:37.963Z,12.30
2023-01-21T05:12:40.531Z,11.80
2023-01-21T05:15:41.825Z,12.88
2023-01-21T05:18:46.788Z,12.50
2023-01-21T05:21:48.216Z,9.37
2023-01-21T05:24:51.468Z,11.47
2023-01-21T05:27:55.006Z,11.15
2023-01-21T05:31:00.076Z,12.02
2023-01-21T05:34:01.820Z,13.57
2023-01-21T05:37:03.217Z,11.73
2023-01-21T05:40:06.639Z,10.43
2023-01-21T05:43:09.189Z,13.75
2023-01-21T05:46:10.694Z,12.77
2023-01-21T05:49:13.249Z,12.20
2023-01-21T05:52:14.580Z,12.00
2023-01-21T05:55:16.767Z,12.53
2023-01-21T06:01:38.719Z,10.20
2023-01-21T06:04:41.229Z,10.07
2023-01-21T06:07:42.576Z,11.10
2023-01-21T06:10:45.891Z,10.87
2023-01-21T06:13:48.472Z,12.25
2023-01-21T06:16:49.802Z,12.63
2023-01-21T06:19:52.334Z,11.75
2023-01-21T06:22:53.616Z,11.63
2023-01-21T06:26:00.693Z,13.10
2023-01-21T06:29:02.523Z,11.68
2023-01-21T06:32:04.460Z,10.43
2023-01-21T06:35:07.503Z,13.40
2023-01-21T06:38:08.822Z,12.53
2023-01-21T06:41:12.015Z,15.03
2023-01-21T06:44:14.564Z,13.68
2023-01-21T06:47:15.857Z,11.45
2023-01-21T06:50:19.355Z,13.25
2023-01-21T06:53:20.751Z,13.77
2023-01-21T06:56:23.940Z,11.57
2023-01-21T06:59:25.368Z,13.20
2023-01-21T07:02:26.842Z,12.65
2023-01-21T07:05:28.174Z,14.05
2023-01-21T07:08:29.491Z,15.30
2023-01-21T07:11:32.994Z,16.87
2023-01-21T07:14:35.611Z,14.90
2023-01-21T07:17:37.804Z,15.43
2023-01-21T07:20:41.018Z,15.38
2023-01-21T07:23:42.560Z,14.80
2023-01-21T07:26:45.772Z,14.33
2023-01-21T07:29:48.764Z,13.95
2023-01-21T07:32:51.340Z,12.98
2023-01-21T07:35:53.918Z,13.75
2023-01-21T07:38:55.576Z,13.57
2023-01-21T07:41:58.815Z,14.90
2023-01-21T07:45:02.120Z,16.75
2023-01-21T07:48:05.179Z,15.82
2023-01-21T07:51:07.878Z,17.17
2023-01-21T07:54:10.120Z,19.17
2023-01-21T07:57:14.227Z,15.63
2023-01-21T08:00:17.212Z,16.52
2023-01-21T08:10:04.776Z,18.33
2023-01-21T08:13:07.184Z,16.17
2023-01-21T08:16:10.881Z,15.60
2023-01-21T08:19:13.954Z,19.00
2023-01-21T08:22:16.732Z,17.52
2023-01-21T08:25:19.535Z,18.03
2023-01-21T08:28:21.668Z,21.67
2023-01-21T08:34:43.953Z,16.20
2023-01-21T08:37:45.326Z,17.73
2023-01-21T08:40:46.587Z,18.17
2023-01-21T08:43:48.564Z,21.17
2023-01-21T08:46:51.155Z,17.45
2023-01-21T08:49:52.471Z,16.63
2023-01-21T08:52:55.271Z,16.83
2023-01-21T08:55:58.580Z,21.10
2023-01-21T08:59:02.141Z,17.33
2023-01-21T09:02:04.756Z,21.08
2023-01-21T09:05:07.145Z,22.77
2023-01-21T09:08:10.077Z,22.25
2023-01-21T09:11:11.559Z,15.50
2023-01-21T09:14:14.782Z,18.63
2023-01-21T09:17:17.332Z,17.20
2023-01-21T09:20:18.642Z,19.88
2023-01-21T09:23:25.862Z,16.98
2023-01-21T09:26:27.794Z,15.80
2023-01-21T09:29:30.984Z,18.13
2023-01-21T09:32:32.891Z,17.13
2023-01-21T09:35:35.452Z,17.47
2023-01-21T09:38:38.106Z,18.33
2023-01-21T09:41:45.204Z,18.85
2023-01-21T09:44:51.032Z,17.48
2023-01-21T09:47:55.581Z,17.07
2023-01-21T09:50:59.989Z,19.37
2023-01-21T09:54:04.978Z,18.27
2023-01-21T09:57:22.380Z,17.70
2023-01-21T10:00:34.846Z,18.92
2023-01-21T10:03:44.877Z,19.03
2023-01-21T10:06:51.044Z,15.87
2023-01-21T10:10:05.049Z,16.65
2023-01-21T10:13:24.318Z,15.77
2023-01-21T10:16:32.916Z,17.05
2023-01-21T10:19:38.850Z,18.50
2023-01-21T10:22:46.683Z,18.73
2023-01-21T10:25:50.674Z,17.17
2023-01-21T10:28:54.545Z,18.25
2023-01-21T10:32:03.538Z,20.95
2023-01-21T10:35:16.749Z,16.50
2023-01-21T10:38:30.981Z,17.03
2023-01-21T10:41:52.328Z,15.98
2023-01-21T10:45:00.560Z,17.88
2023-01-21T10:48:12.115Z,17.05
2023-01-21T10:51:18.750Z,17.20
2023-01-21T10:54:25.304Z,16.90
2023-01-21T10:57:40.953Z,16.52
2023-01-21T11:00:48.386Z,17.45
2023-01-21T11:03:53.867Z,16.48
2023-01-21T11:06:59.953Z,18.93
2023-01-21T11:10:03.026Z,17.00
2023-01-21T11:13:12.751Z,19.50
2023-01-21T11:16:30.025Z,17.48
2023-01-21T11:19:33.206Z,19.20
2023-01-21T11:22:42.846Z,19.50
2023-01-21T11:25:45.441Z,17.87
2023-01-21T11:28:46.703Z,18.55
2023-01-21T11:31:51.884Z,19.20
2023-01-21T11:35:03.372Z,19.15
2023-01-21T11:38:05.376Z,18.53
2023-01-21T11:41:17.676Z,17.80
2023-01-21T11:44:21.882Z,19.10
2023-01-21T11:47:29.049Z,16.95
2023-01-21T11:50:35.223Z,17.83
2023-01-21T11:53:37.546Z,18.50
2023-01-21T11:56:40.048Z,15.50
2023-01-21T11:59:46.689Z,15.10
2023-01-21T12:02:51.622Z,16.10
2023-01-21T12:05:55.157Z,18.35
2023-01-21T12:09:01.677Z,15.17
2023-01-21T12:12:27.887Z,16.70
2023-01-21T12:15:44.469Z,15.52
2023-01-21T12:19:23.467Z,14.38
2023-01-21T12:22:57.392Z,13.15
2023-01-21T12:26:00.810Z,14.17
2023-01-21T12:29:19.584Z,15.23
2023-01-21T12:32:26.231Z,14.48
2023-01-21T12:35:33.253Z,14.77
2023-01-21T12:38:40.773Z,12.40
2023-01-21T12:41:46.904Z,16.10
2023-01-21T12:44:53.037Z,12.27
2023-01-21T12:47:58.717Z,12.10
2023-01-21T12:51:05.670Z,13.15
2023-01-21T12:54:17.579Z,14.13
2023-01-21T12:57:25.363Z,9.27
2023-01-21T13:00:34.121Z,11.17
2023-01-21T13:03:47.727Z,10.75
2023-01-21T13:06:57.638Z,9.75
2023-01-21T13:10:11.171Z,10.95
2023-01-21T13:13:17.764Z,11.00
2023-01-21T13:16:22.571Z,8.73
2023-01-21T13:19:25.103Z,8.95
2023-01-21T13:22:36.248Z,11.45
2023-01-21T13:25:44.343Z,12.07
2023-01-21T13:28:53.149Z,10.17
2023-01-21T13:32:13.124Z,9.40
2023-01-21T13:35:28.711Z,12.93
2023-01-21T13:38:37.292Z,9.88
2023-01-21T13:42:01.174Z,11.40
2023-01-21T13:45:25.480Z,8.27
2023-01-21T13:48:44.858Z,10.00
2023-01-21T13:51:56.340Z,8.82
2023-01-21T13:55:15.138Z,11.65
2023-01-21T13:58:25.063Z,14.07
2023-01-21T14:01:32.397Z,11.73
2023-01-21T14:04:40.678Z,18.17
2023-01-21T14:07:46.880Z,10.02
2023-01-21T14:10:53.640Z,10.80
2023-01-21T14:14:24.021Z,8.48
2023-01-21T14:17:53.767Z,7.43
2023-01-21T14:28:21.537Z,10.30
2023-01-21T14:31:31.362Z,8.85
2023-01-21T14:34:40.263Z,6.82
2023-01-21T14:37:44.954Z,7.35
2023-01-21T14:40:50.128Z,7.73
2023-01-21T14:43:52.398Z,6.50
2023-01-21T14:47:17.699Z,8.93
2023-01-21T14:50:45.674Z,7.68
2023-01-21T14:53:49.303Z,7.10
2023-01-21T14:56:52.835Z,7.50
2023-01-21T15:00:10.201Z,7.57
2023-01-21T15:03:16.869Z,6.90
2023-01-21T15:06:22.201Z,5.95
2023-01-21T15:12:53.684Z,7.03
2023-01-21T15:16:12.311Z,5.95
2023-01-21T15:19:27.305Z,5.82
2023-01-21T15:22:40.242Z,5.82
2023-01-21T15:26:03.319Z,7.00
2023-01-21T15:29:33.092Z,7.50
2023-01-21T15:32:37.858Z,5.95
2023-01-21T15:35:41.979Z,5.50
2023-01-21T15:38:43.376Z,5.20
2023-01-21T15:42:03.973Z,13.15
2023-01-21T15:45:19.808Z,8.80
2023-01-21T15:48:46.404Z,6.45
2023-01-21T15:52:01.210Z,6.20
2023-01-21T15:55:24.848Z,5.38
2023-01-21T15:58:36.319Z,5.50
2023-01-21T16:01:38.700Z,8.20
2023-01-21T16:08:22.765Z,5.78
2023-01-21T16:11:48.710Z,6.65
2023-01-21T16:15:01.616Z,6.80
2023-01-21T16:18:13.388Z,6.20
2023-01-21T16:21:20.803Z,8.50
2023-01-21T16:24:27.004Z,5.90
2023-01-21T16:27:30.413Z,7.03
2023-01-21T16:30:31.877Z,9.52
2023-01-21T16:33:34.456Z,5.57
2023-01-21T16:36:37.977Z,6.20
2023-01-21T16:39:41.763Z,6.65
2023-01-21T16:42:44.002Z,5.80
2023-01-21T16:45:51.855Z,5.70
2023-01-21T16:48:56.536Z,7.57
2023-01-21T16:52:01.125Z,7.03
2023-01-21T16:55:18.593Z,8.75
2023-01-21T16:58:25.518Z,6.40
2023-01-21T17:01:27.895Z,7.15
2023-01-21T17:04:30.774Z,7.10
2023-01-21T17:07:37.654Z,8.97
2023-01-21T17:10:52.340Z,7.53
2023-01-21T17:13:53.912Z,7.00
2023-01-21T17:16:58.319Z,7.35
2023-01-21T17:20:01.446Z,6.93
2023-01-21T17:23:06.611Z,7.93
2023-01-21T17:26:18.151Z,9.13
2023-01-21T17:29:23.317Z,8.23
2023-01-21T17:32:26.245Z,9.05
2023-01-21T17:35:29.651Z,7.93
2023-01-21T17:38:30.969Z,9.00
2023-01-21T17:41:38.122Z,9.73
2023-01-21T17:44:39.497Z,8.30
2023-01-21T17:48:03.212Z,8.32
2023-01-21T17:54:29.042Z,7.47
2023-01-21T17:57:33.877Z,8.07
2023-01-21T18:00:40.226Z,14.25
2023-01-21T18:03:42.114Z,9.07
2023-01-21T18:06:45.649Z,8.73
2023-01-21T18:09:46.965Z,8.60
2023-01-21T18:16:09.143Z,8.13
2023-01-21T18:19:27.266Z,9.10
2023-01-21T18:22:32.286Z,6.20
2023-01-21T18:25:33.635Z,7.17
2023-01-21T18:28:36.885Z,8.98
2023-01-21T18:31:40.784Z,11.57
2023-01-21T18:34:42.286Z,9.65
2023-01-21T18:37:45.275Z,10.13
2023-01-21T18:40:46.592Z,6.83
2023-01-21T18:43:49.805Z,9.15
2023-01-21T18:46:51.201Z,7.80
2023-01-21T18:49:53.892Z,8.32
2023-01-21T18:52:55.468Z,8.68
2023-01-21T18:55:58.285Z,8.63
2023-01-21T18:59:01.824Z,9.88
2023-01-21T19:02:03.242Z,7.77
2023-01-21T19:05:06.359Z,8.40
2023-01-21T19:08:13.067Z,6.93
2023-01-21T19:11:14.506Z,7.57
2023-01-21T19:14:18.190Z,10.67
2023-01-21T19:17:25.009Z,7.03
2023-01-21T19:20:28.399Z,8.10
2023-01-21T19:23:29.703Z,6.75
2023-01-21T19:26:32.343Z,9.07
2023-01-21T19:29:38.290Z,9.33
2023-01-21T19:32:39.650Z,8.82
2023-01-21T19:35:45.098Z,9.00
2023-01-21T19:38:52.728Z,6.32
2023-01-21T19:42:07.545Z,8.33
2023-01-21T19:45:11.581Z,7.03
2023-01-21T19:48:17.302Z,6.72
2023-01-21T19:51:18.734Z,7.90
2023-01-21T19:54:21.442Z,8.90
2023-01-21T19:57:24.035Z,7.33
2023-01-21T20:00:27.603Z,7.83
2023-01-21T20:06:51.346Z,6.88
2023-01-21T20:09:52.633Z,7.95
2023-01-21T20:12:54.162Z,5.97
2023-01-21T20:16:01.828Z,6.10
2023-01-21T20:19:03.427Z,6.72
2023-01-21T20:22:04.757Z,8.10
2023-01-21T20:25:06.952Z,7.55
2023-01-21T20:28:16.432Z,7.03
2023-01-21T20:31:18.938Z,8.53
2023-01-21T20:34:21.619Z,6.47
2023-01-21T20:37:23.346Z,7.82
2023-01-21T20:40:27.910Z,9.32
2023-01-21T20:43:29.345Z,8.07
2023-01-21T20:46:32.719Z,6.27
2023-01-21T20:49:34.201Z,7.95
2023-01-21T20:52:36.726Z,10.35
2023-01-21T20:55:39.162Z,9.65
2023-01-21T20:58:45.335Z,5.90
2023-01-21T21:01:47.501Z,7.73
2023-01-21T21:08:13.786Z,8.25
2023-01-21T21:14:38.047Z,9.97
2023-01-21T21:17:41.223Z,8.70
2023-01-21T21:20:43.827Z,7.88
2023-01-21T21:23:45.834Z,8.02
2023-01-21T21:26:48.376Z,6.72
2023-01-21T21:29:55.401Z,8.17
2023-01-21T21:33:00.195Z,6.93
2023-01-21T21:36:02.724Z,6.50
2023-01-21T21:39:05.283Z,7.50
2023-01-21T21:42:26.946Z,7.65
2023-01-21T21:45:29.485Z,6.60
2023-01-21T21:48:37.490Z,6.47
2023-01-21T21:51:40.211Z,8.43
2023-01-21T21:54:42.081Z,7.43
2023-01-21T21:57:44.620Z,6.82
2023-01-21T22:00:47.531Z,7.03
2023-01-21T22:03:49.609Z,7.73
2023-01-21T22:06:52.199Z,9.57
2023-01-21T22:09:54.736Z,8.27
2023-01-21T22:12:56.021Z,7.50
2023-01-21T22:16:00.691Z,8.83
2023-01-21T22:19:02.760Z,8.47
2023-01-21T22:22:05.374Z,7.53
2023-01-21T22:25:09.961Z,7.75
2023-01-21T22:28:12.495Z,7.30
2023-01-21T22:31:15.690Z,8.17
2023-01-21T22:34:18.984Z,7.17
2023-01-21T22:37:21.568Z,6.70
2023-01-21T22:40:22.894Z,7.32
2023-01-21T22:43:25.521Z,8.57
2023-01-21T22:46:30.440Z,9.17
2023-01-21T22:49:32.425Z,7.90
2023-01-21T22:52:34.983Z,6.60
2023-01-21T22:55:38.642Z,8.55
2023-01-21T22:58:40.032Z,7.10
2023-01-21T23:01:43.038Z,7.67
2023-01-21T23:04:45.452Z,7.80
2023-01-21T23:07:48.021Z,8.85
2023-01-21T23:10:49.289Z,7.32
2023-01-21T23:13:53.642Z,8.13
2023-01-21T23:16:56.239Z,6.90
2023-01-21T23:19:58.177Z,7.70
2023-01-21T23:23:00.738Z,6.82
2023-01-21T23:26:03.559Z,7.88
2023-01-21T23:29:04.890Z,8.50
2023-01-21T23:32:07.541Z,7.60
2023-01-21T23:35:09.683Z,8.90
2023-01-21T23:38:12.284Z,8.05
2023-01-21T23:41:16.064Z,6.88
2023-01-21T23:44:18.601Z,8.32
2023-01-21T23:47:20.050Z,8.83
2023-01-21T23:50:23.384Z,9.00
2023-01-21T23:53:25.919Z,7.50
2023-01-21T23:56:27.227Z,7.72
2023-01-21T23:59:29.783Z,7.78
